Terminal Aerodrome Forecast
Issued by NWS

Home | Current Version | Previous Version | Text Only | Print | Product List | Glossary On
Versions: 1 2 3 4 5 6 7 8 9 10 11 12 13 14
000
FTUS42 KMLB 031128
TAFTIX
TAF
KTIX 031128Z 0312/0412 22003KT P6SM SCT250
     FM031400 27006KT P6SM FEW030 SCT250
     FM032000 32008KT P6SM VCTS SCT030CB BKN120
     FM040100 25003KT P6SM SCT120=

USA.gov is the U.S. government's official web portal to all federal, state and local government web resources and services.